createdAt,value
2017-04-23T00:00:36.990Z,0
2017-04-23T00:01:17.471Z,0
2017-04-23T00:01:57.953Z,0
2017-04-23T00:02:38.439Z,0
2017-04-23T00:03:18.928Z,0
2017-04-23T00:03:59.409Z,0
2017-04-23T00:04:39.858Z,0
2017-04-23T00:05:20.367Z,0
2017-04-23T00:06:00.840Z,0
2017-04-23T00:06:41.325Z,0
2017-04-23T00:07:21.826Z,0
2017-04-23T00:08:02.311Z,0
2017-04-23T00:10:30.769Z,0
2017-04-23T00:11:11.226Z,0
2017-04-23T00:11:51.707Z,0
2017-04-23T00:12:32.199Z,0
2017-04-23T00:13:12.677Z,0
2017-04-23T00:13:53.155Z,0
2017-04-23T00:14:33.659Z,0
2017-04-23T00:15:14.144Z,0
2017-04-23T00:15:54.629Z,0
2017-04-23T00:16:35.133Z,0
2017-04-23T00:17:15.605Z,0
2017-04-23T00:17:56.096Z,0
2017-04-23T00:18:36.588Z,0
2017-04-23T00:19:17.093Z,0
2017-04-23T00:19:57.582Z,0
2017-04-23T00:20:38.073Z,0
2017-04-23T00:21:18.547Z,0
2017-04-23T00:21:59.016Z,0
2017-04-23T00:22:39.482Z,0
2017-04-23T00:23:19.979Z,0
2017-04-23T00:24:00.495Z,0
2017-04-23T00:24:40.982Z,0
2017-04-23T00:25:21.463Z,0
2017-04-23T00:26:01.957Z,0
2017-04-23T00:26:42.437Z,0
2017-04-23T00:27:22.969Z,0
2017-04-23T00:28:03.427Z,0
2017-04-23T00:28:43.933Z,0
2017-04-23T00:29:24.436Z,0
2017-04-23T00:30:04.930Z,0
2017-04-23T00:30:45.415Z,0
2017-04-23T00:31:25.915Z,0
2017-04-23T00:32:06.409Z,0
2017-04-23T00:34:04.682Z,0
2017-04-23T00:34:45.185Z,0
2017-04-23T00:35:25.679Z,0
2017-04-23T00:36:06.144Z,0
2017-04-23T00:36:46.631Z,0
2017-04-23T00:37:27.122Z,0
2017-04-23T00:38:07.608Z,0
2017-04-23T00:38:48.097Z,0
2017-04-23T00:39:28.588Z,0
2017-04-23T00:40:09.102Z,0
2017-04-23T00:40:49.586Z,0
2017-04-23T00:41:30.082Z,0
2017-04-23T00:42:10.541Z,0
2017-04-23T00:42:51.066Z,0
2017-04-23T00:43:31.537Z,0
2017-04-23T00:44:12.042Z,0
2017-04-23T00:44:52.526Z,0
2017-04-23T00:45:33.021Z,0
2017-04-23T00:46:13.463Z,0
2017-04-23T00:46:53.948Z,0
2017-04-23T00:47:34.429Z,0
2017-04-23T00:48:14.988Z,0
2017-04-23T00:48:55.440Z,0
2017-04-23T00:49:35.934Z,0
2017-04-23T00:50:16.428Z,0
2017-04-23T00:50:56.883Z,0
2017-04-23T00:51:37.372Z,0
2017-04-23T00:52:17.845Z,0
2017-04-23T00:52:58.351Z,0
2017-04-23T00:53:38.814Z,0
2017-04-23T00:54:19.301Z,0
2017-04-23T00:54:59.777Z,0
2017-04-23T00:55:40.301Z,0
2017-04-23T00:56:20.750Z,0
2017-04-23T00:57:01.272Z,0
2017-04-23T00:57:41.751Z,0
2017-04-23T00:58:22.230Z,0
2017-04-23T00:59:02.682Z,0
2017-04-23T00:59:43.174Z,0
2017-04-23T01:00:23.659Z,0
2017-04-23T01:01:04.146Z,0
2017-04-23T01:01:44.610Z,0
2017-04-23T01:02:25.106Z,0
2017-04-23T01:03:05.601Z,0
2017-04-23T01:03:46.104Z,0
2017-04-23T01:04:26.614Z,0
2017-04-23T01:05:07.103Z,0
2017-04-23T01:05:47.595Z,0
2017-04-23T01:06:28.067Z,0
2017-04-23T01:07:08.580Z,0
2017-04-23T01:07:49.045Z,0
2017-04-23T01:08:29.552Z,0
2017-04-23T01:09:10.079Z,0
2017-04-23T01:09:50.612Z,0
2017-04-23T01:10:31.237Z,0
2017-04-23T01:11:11.737Z,0
2017-04-23T01:11:52.238Z,0
2017-04-23T01:12:32.711Z,0
2017-04-23T01:13:13.176Z,0
2017-04-23T01:13:53.660Z,0
2017-04-23T01:14:34.126Z,0
2017-04-23T01:15:14.617Z,0
2017-04-23T01:15:55.167Z,0
2017-04-23T01:16:35.646Z,0
2017-04-23T01:17:16.123Z,0
2017-04-23T01:17:56.635Z,0
2017-04-23T01:18:37.129Z,0
2017-04-23T01:19:17.639Z,0
2017-04-23T01:19:58.135Z,0
2017-04-23T01:20:38.600Z,0
2017-04-23T01:21:19.087Z,0
2017-04-23T01:21:59.615Z,0
2017-04-23T01:22:40.127Z,0
2017-04-23T01:23:20.600Z,0
2017-04-23T01:24:01.061Z,0
2017-04-23T01:24:41.542Z,0
2017-04-23T01:25:22.062Z,0
2017-04-23T01:26:02.537Z,0
2017-04-23T01:26:42.988Z,0
2017-04-23T01:27:23.555Z,0
2017-04-23T01:28:04.028Z,0
2017-04-23T01:28:44.538Z,0
2017-04-23T01:29:25.044Z,0
2017-04-23T01:30:05.531Z,0
2017-04-23T01:30:46.036Z,0
2017-04-23T01:31:26.490Z,0
2017-04-23T01:32:07.021Z,0
2017-04-23T01:32:47.492Z,0
2017-04-23T01:33:27.984Z,0
2017-04-23T01:34:08.474Z,0
2017-04-23T01:34:48.967Z,0
2017-04-23T01:35:29.451Z,0
2017-04-23T01:36:09.979Z,0
2017-04-23T01:36:50.481Z,0
2017-04-23T01:37:30.936Z,0
2017-04-23T01:38:11.432Z,0
2017-04-23T01:38:51.947Z,0
2017-04-23T01:39:32.428Z,0
2017-04-23T01:40:12.968Z,0
2017-04-23T01:40:53.460Z,0
2017-04-23T01:41:33.928Z,0
2017-04-23T01:42:14.431Z,0
2017-04-23T01:42:54.939Z,0
2017-04-23T01:43:35.421Z,0
2017-04-23T01:44:16.041Z,0
2017-04-23T01:44:56.443Z,0
2017-04-23T01:45:36.898Z,0
2017-04-23T01:46:17.395Z,0
2017-04-23T01:46:57.874Z,0
2017-04-23T01:47:38.365Z,0
2017-04-23T01:48:18.899Z,0
2017-04-23T01:48:59.386Z,0
2017-04-23T01:49:39.925Z,0
2017-04-23T01:50:20.384Z,0
2017-04-23T01:51:00.885Z,0
2017-04-23T01:51:41.337Z,0
2017-04-23T01:52:21.831Z,0
2017-04-23T01:53:02.328Z,0
2017-04-23T01:53:42.807Z,0
2017-04-23T01:54:23.314Z,0
2017-04-23T01:55:03.790Z,0
2017-04-23T01:55:44.281Z,0
2017-04-23T01:56:24.782Z,0
2017-04-23T01:57:05.234Z,0
2017-04-23T01:57:45.735Z,0
2017-04-23T01:58:26.213Z,0
2017-04-23T01:59:06.732Z,0
2017-04-23T01:59:47.234Z,0
2017-04-23T02:00:27.697Z,0
2017-04-23T02:01:08.213Z,0
2017-04-23T02:01:48.674Z,0
2017-04-23T02:02:29.168Z,0
2017-04-23T02:03:09.662Z,0
2017-04-23T02:03:50.195Z,0
2017-04-23T02:04:30.705Z,0
2017-04-23T02:05:11.158Z,0
2017-04-23T02:05:51.643Z,0
2017-04-23T02:06:32.124Z,0
2017-04-23T02:07:12.592Z,0
2017-04-23T02:07:53.101Z,0
2017-04-23T02:08:33.561Z,0
2017-04-23T02:09:14.040Z,0
2017-04-23T02:09:54.547Z,0
2017-04-23T02:10:35.043Z,0
2017-04-23T02:11:17.519Z,0
2017-04-23T02:11:58.020Z,0
2017-04-23T02:12:38.559Z,0
2017-04-23T02:13:19.023Z,0
2017-04-23T02:13:59.530Z,0
2017-04-23T02:14:40.005Z,0
2017-04-23T02:15:20.490Z,0
2017-04-23T02:16:00.980Z,0
2017-04-23T02:16:41.475Z,0
2017-04-23T02:17:21.933Z,0
2017-04-23T02:18:02.422Z,0
2017-04-23T02:18:42.911Z,0
2017-04-23T02:19:23.397Z,0
2017-04-23T02:20:03.910Z,0
2017-04-23T02:20:44.406Z,0
2017-04-23T02:21:24.878Z,0
2017-04-23T02:22:05.380Z,0
2017-04-23T02:22:45.863Z,0
2017-04-23T02:23:26.346Z,0
2017-04-23T02:24:06.849Z,0
2017-04-23T02:24:47.339Z,0
2017-04-23T02:25:27.808Z,0
2017-04-23T02:26:08.304Z,0
2017-04-23T02:26:48.836Z,0
2017-04-23T02:27:29.328Z,0
2017-04-23T02:28:09.790Z,0
2017-04-23T02:28:50.294Z,0
2017-04-23T02:29:30.776Z,0
2017-04-23T02:30:11.283Z,0
2017-04-23T02:30:51.784Z,0
2017-04-23T02:31:32.293Z,0
2017-04-23T02:32:12.772Z,0
2017-04-23T02:32:53.280Z,0
2017-04-23T02:33:33.757Z,0
2017-04-23T02:34:14.247Z,0
2017-04-23T02:34:54.780Z,0
2017-04-23T02:35:35.287Z,0
2017-04-23T02:36:15.746Z,0
2017-04-23T02:36:56.209Z,0
2017-04-23T02:37:36.717Z,0
2017-04-23T02:38:17.223Z,0
2017-04-23T02:38:57.732Z,0
2017-04-23T02:39:38.178Z,0
2017-04-23T02:40:18.669Z,0
2017-04-23T02:40:59.168Z,0
2017-04-23T02:41:39.626Z,0
2017-04-23T02:44:08.114Z,0
2017-04-23T02:44:48.611Z,0
2017-04-23T02:45:29.067Z,0
2017-04-23T02:46:09.566Z,0
2017-04-23T02:46:50.044Z,0
2017-04-23T02:47:30.524Z,0
2017-04-23T02:48:11.002Z,0
2017-04-23T02:48:51.523Z,0
2017-04-23T02:51:21.075Z,0
2017-04-23T02:52:01.445Z,0
2017-04-23T02:52:41.940Z,0
2017-04-23T02:53:22.406Z,0
2017-04-23T02:54:02.888Z,0
2017-04-23T02:54:43.381Z,0
2017-04-23T02:55:23.850Z,0
2017-04-23T02:56:04.350Z,0
2017-04-23T02:56:44.849Z,0
2017-04-23T02:57:25.344Z,0
2017-04-23T02:59:43.707Z,0
2017-04-23T03:00:24.186Z,0
2017-04-23T03:01:04.638Z,0
2017-04-23T03:01:45.162Z,0
2017-04-23T03:02:25.650Z,0
2017-04-23T03:03:06.129Z,0
2017-04-23T03:03:46.608Z,0
2017-04-23T03:04:27.086Z,0
2017-04-23T03:05:07.570Z,0
2017-04-23T03:05:48.047Z,0
2017-04-23T03:06:28.506Z,0
2017-04-23T03:07:09.004Z,0
2017-04-23T03:07:49.539Z,0
2017-04-23T03:08:30.034Z,0
2017-04-23T03:09:10.525Z,0
2017-04-23T03:09:50.995Z,0
2017-04-23T03:10:31.481Z,0
2017-04-23T03:11:11.960Z,0
2017-04-23T03:11:52.459Z,0
2017-04-23T03:12:32.943Z,0
2017-04-23T03:13:13.443Z,0
2017-04-23T03:13:53.945Z,0
2017-04-23T03:14:34.397Z,0
2017-04-23T03:15:14.880Z,0
2017-04-23T03:15:55.402Z,0
2017-04-23T03:16:35.879Z,0
2017-04-23T03:17:16.384Z,0
2017-04-23T03:17:56.868Z,0
2017-04-23T03:18:37.329Z,0
2017-04-23T03:19:17.822Z,0
2017-04-23T03:19:58.312Z,0
2017-04-23T03:20:38.815Z,0
2017-04-23T03:21:19.320Z,0
2017-04-23T03:21:59.811Z,0
2017-04-23T03:22:40.321Z,0
2017-04-23T03:23:20.803Z,0
2017-04-23T03:24:01.313Z,0
2017-04-23T03:24:41.824Z,0
2017-04-23T03:25:22.339Z,0
2017-04-23T03:26:02.834Z,0
2017-04-23T03:26:43.311Z,4
2017-04-23T03:27:23.818Z,4
2017-04-23T03:28:04.296Z,4
2017-04-23T03:28:44.773Z,0
2017-04-23T03:29:25.300Z,0
2017-04-23T03:30:05.804Z,0
2017-04-23T03:30:46.304Z,0
2017-04-23T03:31:26.754Z,4
2017-04-23T03:32:07.225Z,4
2017-04-23T03:32:47.713Z,4
2017-04-23T03:33:28.174Z,4
2017-04-23T03:34:08.666Z,4
2017-04-23T03:34:49.165Z,4
2017-04-23T03:35:29.669Z,8
2017-04-23T03:36:10.171Z,4
2017-04-23T03:36:50.639Z,4
2017-04-23T03:37:31.142Z,8
2017-04-23T03:38:11.623Z,4
2017-04-23T03:38:52.083Z,8
2017-04-23T03:39:32.641Z,8
2017-04-23T03:40:13.117Z,8
2017-04-23T03:40:53.605Z,8
2017-04-23T03:41:34.106Z,8
2017-04-23T03:42:14.593Z,12
2017-04-23T03:42:55.115Z,12
2017-04-23T03:43:35.616Z,12
2017-04-23T03:44:16.220Z,16
2017-04-23T03:44:56.708Z,16
2017-04-23T03:45:37.193Z,16
2017-04-23T03:46:17.639Z,16
2017-04-23T03:46:58.110Z,12
2017-04-23T03:47:38.627Z,12
2017-04-23T03:48:19.081Z,16
2017-04-23T03:48:59.562Z,20
2017-04-23T03:49:40.079Z,28
2017-04-23T03:50:20.541Z,36
2017-04-23T03:51:01.014Z,40
2017-04-23T03:51:41.523Z,44
2017-04-23T03:52:22.021Z,44
2017-04-23T03:53:02.511Z,48
2017-04-23T03:53:42.997Z,56
2017-04-23T03:54:23.485Z,60
2017-04-23T03:56:36.697Z,76
2017-04-23T03:57:17.129Z,80
2017-04-23T03:57:57.637Z,92
2017-04-23T03:58:38.120Z,108
2017-04-23T03:59:18.597Z,120
2017-04-23T03:59:59.091Z,128
2017-04-23T04:00:39.562Z,140
2017-04-23T04:01:20.095Z,148
2017-04-23T04:02:00.562Z,156
2017-04-23T04:02:41.079Z,160
2017-04-23T04:03:21.586Z,160
2017-04-23T04:05:34.753Z,184
2017-04-23T04:06:15.250Z,196
2017-04-23T04:06:55.755Z,212
2017-04-23T04:07:36.234Z,228
2017-04-23T04:08:16.720Z,244
2017-04-23T04:08:57.180Z,248
2017-04-23T04:09:37.672Z,252
2017-04-23T04:10:18.183Z,252
2017-04-23T04:10:58.646Z,248
2017-04-23T04:11:39.183Z,244
2017-04-23T04:12:19.684Z,224
2017-04-23T04:13:00.140Z,208
2017-04-23T04:13:40.628Z,204
2017-04-23T04:14:21.125Z,208
2017-04-23T04:15:01.611Z,192
2017-04-23T04:15:42.092Z,184
2017-04-23T04:16:22.592Z,168
2017-04-23T04:17:03.076Z,156
2017-04-23T04:17:43.547Z,144
2017-04-23T04:18:24.027Z,132
2017-04-23T04:19:04.514Z,128
2017-04-23T04:19:44.958Z,128
2017-04-23T04:20:25.462Z,140
2017-04-23T04:21:05.982Z,176
2017-04-23T04:21:46.480Z,212
2017-04-23T04:22:26.990Z,232
2017-04-23T04:23:07.516Z,256
2017-04-23T04:23:47.995Z,284
2017-04-23T04:24:28.458Z,304
2017-04-23T04:25:08.952Z,316
2017-04-23T04:25:49.433Z,320
2017-04-23T04:26:29.985Z,336
2017-04-23T04:27:10.487Z,352
2017-04-23T04:27:50.968Z,348
2017-04-23T04:28:31.535Z,344
2017-04-23T04:31:01.034Z,404
2017-04-23T04:31:41.368Z,436
2017-04-23T04:32:21.848Z,468
2017-04-23T04:33:02.366Z,508
2017-04-23T04:33:42.819Z,560
2017-04-23T04:35:41.929Z,544
2017-04-23T04:36:22.413Z,460
2017-04-23T04:37:02.895Z,388
2017-04-23T04:37:43.406Z,408
2017-04-23T04:38:23.911Z,448
2017-04-23T04:39:04.406Z,524
2017-04-23T04:39:44.903Z,592
2017-04-23T04:40:25.409Z,720
2017-04-23T04:41:05.893Z,884
2017-04-23T04:41:46.367Z,1016
2017-04-23T04:42:26.874Z,1128
2017-04-23T04:43:07.397Z,1188
2017-04-23T04:43:47.891Z,1204
2017-04-23T04:44:28.400Z,1196
2017-04-23T04:45:08.893Z,1136
2017-04-23T04:45:49.385Z,1120
2017-04-23T04:46:29.886Z,1212
2017-04-23T04:47:10.368Z,1336
2017-04-23T04:47:50.836Z,1432
2017-04-23T04:48:31.321Z,1468
2017-04-23T04:49:11.807Z,1456
2017-04-23T04:49:52.313Z,1440
2017-04-23T04:50:32.795Z,1468
2017-04-23T04:51:13.310Z,1508
2017-04-23T04:51:53.788Z,1536
2017-04-23T04:52:34.257Z,1564
2017-04-23T04:53:14.764Z,1596
2017-04-23T04:53:55.229Z,1628
2017-04-23T04:54:35.729Z,1696
2017-04-23T04:55:16.242Z,1772
2017-04-23T04:55:56.717Z,1844
2017-04-23T04:56:37.255Z,1920
2017-04-23T04:57:17.729Z,2000
2017-04-23T04:57:58.239Z,2072
2017-04-23T04:58:38.717Z,2144
2017-04-23T04:59:19.207Z,2216
2017-04-23T04:59:59.734Z,2252
2017-04-23T05:00:40.237Z,2276
2017-04-23T05:01:20.759Z,2324
2017-04-23T05:02:01.265Z,2332
2017-04-23T05:02:41.757Z,2376
2017-04-23T05:03:22.210Z,2436
2017-04-23T05:04:02.704Z,2532
2017-04-23T05:04:43.168Z,2596
2017-04-23T05:05:23.649Z,2636
2017-04-23T05:06:04.132Z,2688
2017-04-23T05:06:44.614Z,2668
2017-04-23T05:07:25.108Z,2632
2017-04-23T05:08:05.578Z,2596
2017-04-23T05:08:46.074Z,2504
2017-04-23T05:09:26.573Z,2444
2017-04-23T05:10:07.073Z,2420
2017-04-23T05:10:47.555Z,2436
2017-04-23T05:11:28.069Z,2440
2017-04-23T05:12:08.569Z,2476
2017-04-23T05:12:49.041Z,2544
2017-04-23T05:13:29.510Z,2524
2017-04-23T05:14:10.024Z,2324
2017-04-23T05:14:50.505Z,1992
2017-04-23T05:15:31.017Z,1728
2017-04-23T05:16:11.478Z,1744
2017-04-23T05:16:52.000Z,1904
2017-04-23T05:17:32.470Z,2188
2017-04-23T05:18:12.955Z,2544
2017-04-23T05:18:53.435Z,2752
2017-04-23T05:19:33.908Z,2796
2017-04-23T05:20:14.362Z,2776
2017-04-23T05:20:54.855Z,2520
2017-04-23T05:21:35.337Z,1924
2017-04-23T05:22:15.843Z,1320
2017-04-23T05:22:56.332Z,976
2017-04-23T05:23:36.789Z,876
2017-04-23T05:24:17.281Z,964
2017-04-23T05:24:57.767Z,1180
2017-04-23T05:25:38.248Z,1420
2017-04-23T05:26:18.758Z,1752
2017-04-23T05:26:59.272Z,2196
2017-04-23T05:27:39.756Z,2592
2017-04-23T05:28:20.252Z,2816
2017-04-23T05:29:00.754Z,2880
2017-04-23T05:29:41.238Z,2892
2017-04-23T05:30:21.669Z,2968
2017-04-23T05:31:02.192Z,2972
2017-04-23T05:31:42.655Z,2964
2017-04-23T05:32:23.173Z,2972
2017-04-23T05:33:03.714Z,2944
2017-04-23T05:33:44.217Z,2932
2017-04-23T05:34:24.717Z,2980
2017-04-23T05:35:05.219Z,3008
2017-04-23T05:35:45.703Z,3040
2017-04-23T05:36:26.220Z,3132
2017-04-23T05:37:06.643Z,3232
2017-04-23T05:37:47.160Z,3340
2017-04-23T05:38:27.668Z,3408
2017-04-23T05:39:08.147Z,3452
2017-04-23T05:39:48.663Z,3480
2017-04-23T05:40:29.176Z,3532
2017-04-23T05:41:09.668Z,3548
2017-04-23T05:41:50.165Z,3464
2017-04-23T05:42:30.681Z,3352
2017-04-23T05:43:11.164Z,3340
2017-04-23T05:43:51.663Z,3336
2017-04-23T05:44:32.173Z,3380
2017-04-23T05:45:12.633Z,3436
2017-04-23T05:45:53.163Z,3504
2017-04-23T05:46:33.659Z,3508
2017-04-23T05:47:14.160Z,3580
2017-04-23T05:47:54.635Z,3736
2017-04-23T05:48:35.153Z,4068
2017-04-23T05:49:15.700Z,4516
2017-04-23T05:49:56.214Z,4976
2017-04-23T05:50:36.722Z,5088
2017-04-23T05:51:17.219Z,5100
2017-04-23T05:51:57.723Z,5624
2017-04-23T05:52:38.193Z,5976
2017-04-23T05:53:18.704Z,6132
2017-04-23T05:53:59.176Z,6616
2017-04-23T05:54:39.673Z,7008
2017-04-23T05:55:20.165Z,7648
2017-04-23T05:56:00.677Z,7096
2017-04-23T05:56:41.179Z,7200
2017-04-23T05:57:21.638Z,8320
2017-04-23T05:58:02.128Z,8904
2017-04-23T05:58:42.678Z,8732
2017-04-23T05:59:23.145Z,8100
2017-04-23T06:00:03.648Z,7320
2017-04-23T06:00:44.105Z,6752
2017-04-23T06:01:24.575Z,5912
2017-04-23T06:02:05.064Z,4716
2017-04-23T06:02:45.614Z,3100
2017-04-23T06:03:26.120Z,2072
2017-04-23T06:04:06.596Z,1748
2017-04-23T06:04:47.130Z,1520
2017-04-23T06:05:27.593Z,1576
2017-04-23T06:06:08.060Z,1452
2017-04-23T06:06:48.570Z,1280
2017-04-23T06:07:29.062Z,1216
2017-04-23T06:08:09.554Z,1268
2017-04-23T06:08:50.048Z,1324
2017-04-23T06:09:30.592Z,1396
2017-04-23T06:10:11.078Z,1416
2017-04-23T06:10:51.572Z,1396
2017-04-23T06:11:32.048Z,1404
2017-04-23T06:12:12.533Z,1536
2017-04-23T06:12:53.035Z,1784
2017-04-23T06:13:33.553Z,2012
2017-04-23T06:14:14.020Z,2392
2017-04-23T06:14:54.497Z,2564
2017-04-23T06:15:35.003Z,2768
2017-04-23T06:16:15.480Z,3384
2017-04-23T06:16:55.990Z,3996
2017-04-23T06:17:36.489Z,4440
2017-04-23T06:18:16.947Z,4592
2017-04-23T06:18:57.451Z,4316
2017-04-23T06:19:37.929Z,4044
2017-04-23T06:20:18.411Z,3712
2017-04-23T06:20:58.935Z,3392
2017-04-23T06:21:39.430Z,3212
2017-04-23T06:22:19.919Z,3232
2017-04-23T06:23:00.436Z,3260
2017-04-23T06:23:40.892Z,3300
2017-04-23T06:24:21.402Z,3356
2017-04-23T06:25:01.887Z,3488
2017-04-23T06:25:42.347Z,3748
2017-04-23T06:26:22.811Z,3872
2017-04-23T06:27:03.300Z,4000
2017-04-23T06:27:43.807Z,4072
2017-04-23T06:28:24.289Z,4076
2017-04-23T06:29:04.752Z,4180
2017-04-23T06:29:45.264Z,4180
2017-04-23T06:32:13.672Z,4508
2017-04-23T06:32:54.148Z,4636
2017-04-23T06:33:34.653Z,4512
2017-04-23T06:34:15.077Z,4344
2017-04-23T06:34:55.618Z,4096
2017-04-23T06:35:36.097Z,3968
2017-04-23T06:36:16.562Z,3952
2017-04-23T06:36:57.083Z,3992
2017-04-23T06:37:37.582Z,4044
2017-04-23T06:38:18.102Z,4204
2017-04-23T06:38:58.595Z,4472
2017-04-23T06:39:39.107Z,4720
2017-04-23T06:40:19.589Z,5024
2017-04-23T06:41:00.096Z,5160
2017-04-23T06:41:40.603Z,5368
2017-04-23T06:42:21.083Z,5796
2017-04-23T06:43:01.582Z,6504
2017-04-23T06:43:42.044Z,7268
2017-04-23T06:44:22.536Z,7972
2017-04-23T06:45:03.002Z,8312
2017-04-23T06:45:43.534Z,8452
2017-04-23T06:46:24.003Z,8496
2017-04-23T06:47:04.504Z,8540
2017-04-23T06:47:44.976Z,8472
2017-04-23T06:48:25.454Z,8224
2017-04-23T06:49:05.978Z,7664
2017-04-23T06:49:46.466Z,7096
2017-04-23T06:50:26.967Z,6808
2017-04-23T06:51:07.461Z,6756
2017-04-23T06:51:47.963Z,6776
2017-04-23T06:52:28.451Z,6696
2017-04-23T06:53:08.944Z,6676
2017-04-23T06:53:49.446Z,6756
2017-04-23T06:54:29.922Z,6896
2017-04-23T06:55:10.406Z,6824
2017-04-23T06:55:50.864Z,6624
2017-04-23T06:56:31.391Z,6316
2017-04-23T06:57:11.875Z,6028
2017-04-23T06:57:52.392Z,5784
2017-04-23T06:58:32.858Z,5432
2017-04-23T06:59:13.325Z,5272
2017-04-23T06:59:53.842Z,5148
2017-04-23T07:00:34.342Z,4912
2017-04-23T07:01:14.851Z,4812
2017-04-23T07:01:55.368Z,4968
2017-04-23T07:02:35.860Z,5228
2017-04-23T07:03:16.340Z,5488
2017-04-23T07:03:56.818Z,5768
2017-04-23T07:04:37.305Z,6060
2017-04-23T07:05:17.791Z,6420
2017-04-23T07:05:58.305Z,6908
2017-04-23T07:06:38.779Z,7436
2017-04-23T07:07:19.256Z,7868
2017-04-23T07:07:59.750Z,8048
2017-04-23T07:08:40.232Z,8036
2017-04-23T07:09:20.753Z,7952
2017-04-23T07:10:01.276Z,8024
2017-04-23T07:10:41.725Z,8212
2017-04-23T07:11:22.190Z,8304
2017-04-23T07:12:02.731Z,8284
2017-04-23T07:12:43.202Z,8092
2017-04-23T07:13:23.733Z,7908
2017-04-23T07:14:04.223Z,7896
2017-04-23T07:14:44.742Z,7900
2017-04-23T07:15:25.203Z,7940
2017-04-23T07:16:05.689Z,7996
2017-04-23T07:16:46.179Z,8220
2017-04-23T07:17:26.661Z,8596
2017-04-23T07:18:07.181Z,8772
2017-04-23T07:18:47.673Z,8828
2017-04-23T07:19:28.199Z,8840
2017-04-23T07:20:08.703Z,8808
2017-04-23T07:20:49.175Z,8740
2017-04-23T07:21:29.634Z,8696
2017-04-23T07:22:10.127Z,8532
2017-04-23T07:22:50.642Z,8312
2017-04-23T07:23:31.147Z,8048
2017-04-23T07:24:11.632Z,7924
2017-04-23T07:24:52.098Z,7732
2017-04-23T07:25:32.595Z,7616
2017-04-23T07:26:13.070Z,7296
2017-04-23T07:26:53.536Z,6876
2017-04-23T07:27:34.012Z,6708
2017-04-23T07:28:14.500Z,6588
2017-04-23T07:28:54.986Z,6620
2017-04-23T07:29:35.483Z,6272
2017-04-23T07:30:15.986Z,6132
2017-04-23T07:30:56.490Z,5700
2017-04-23T07:31:36.981Z,5116
2017-04-23T07:32:17.520Z,4744
2017-04-23T07:32:58.004Z,4416
2017-04-23T07:35:16.262Z,5048
2017-04-23T07:35:56.740Z,5348
2017-04-23T07:36:37.225Z,6048
2017-04-23T07:37:17.691Z,6736
2017-04-23T07:39:30.889Z,10760
2017-04-23T07:40:11.353Z,11652
2017-04-23T07:40:52.019Z,13008
2017-04-23T07:41:34.381Z,13680
2017-04-23T07:42:14.854Z,10988
2017-04-23T07:42:55.398Z,7124
2017-04-23T07:43:35.900Z,3940
2017-04-23T07:44:16.544Z,3456
2017-04-23T07:44:57.056Z,3648
2017-04-23T07:45:37.597Z,4408
2017-04-23T07:46:18.079Z,5744
2017-04-23T07:46:58.574Z,7040
2017-04-23T07:47:39.058Z,8064
2017-04-23T07:50:12.527Z,10896
2017-04-23T07:50:53.010Z,11248
2017-04-23T07:51:33.506Z,11244
2017-04-23T07:52:13.975Z,11216
2017-04-23T07:52:54.534Z,11320
2017-04-23T07:53:35.100Z,11120
2017-04-23T07:54:15.543Z,10964
2017-04-23T07:54:56.046Z,10944
2017-04-23T07:55:36.507Z,11072
2017-04-23T07:56:16.988Z,11268
2017-04-23T07:56:57.473Z,11272
2017-04-23T07:57:37.981Z,11172
2017-04-23T07:58:18.471Z,11096
2017-04-23T07:58:58.971Z,11012
2017-04-23T07:59:39.431Z,10836
2017-04-23T08:00:19.928Z,10592
2017-04-23T08:01:00.409Z,10276
2017-04-23T08:01:40.897Z,10032
2017-04-23T08:02:21.405Z,9740
2017-04-23T08:03:01.880Z,9332
2017-04-23T08:03:42.376Z,8892
2017-04-23T08:04:22.887Z,8520
2017-04-23T08:05:03.367Z,8216
2017-04-23T08:05:43.860Z,7932
2017-04-23T08:06:24.341Z,7640
2017-04-23T08:07:04.869Z,7460
2017-04-23T08:07:45.344Z,7284
2017-04-23T08:08:25.870Z,7116
2017-04-23T08:09:06.353Z,6860
2017-04-23T08:09:46.860Z,6472
2017-04-23T08:10:27.329Z,6112
2017-04-23T08:11:07.837Z,5736
2017-04-23T08:11:48.329Z,5348
2017-04-23T08:12:28.785Z,5016
2017-04-23T08:13:09.295Z,4828
2017-04-23T08:13:49.758Z,4612
2017-04-23T08:14:30.257Z,4460
2017-04-23T08:15:10.753Z,4448
2017-04-23T08:15:51.242Z,4644
2017-04-23T08:16:31.870Z,4724
2017-04-23T08:17:12.374Z,5080
2017-04-23T08:17:52.884Z,5644
2017-04-23T08:18:33.365Z,6520
2017-04-23T08:19:13.848Z,9144
2017-04-23T08:19:54.373Z,11012
2017-04-23T08:20:34.879Z,10804
2017-04-23T08:21:15.374Z,11448
2017-04-23T08:21:55.823Z,14080
2017-04-23T08:22:36.320Z,16228
2017-04-23T08:23:16.762Z,16640
2017-04-23T08:23:57.262Z,13368
2017-04-23T08:24:37.759Z,11076
2017-04-23T08:25:18.259Z,9212
2017-04-23T08:25:58.728Z,8716
2017-04-23T08:26:39.204Z,8600
2017-04-23T08:27:19.664Z,8092
2017-04-23T08:28:00.145Z,6524
2017-04-23T08:28:40.623Z,5196
2017-04-23T08:29:21.115Z,5288
2017-04-23T08:30:01.597Z,4880
2017-04-23T08:30:42.090Z,5660
2017-04-23T08:31:22.575Z,6052
2017-04-23T08:32:03.057Z,7100
2017-04-23T08:32:43.545Z,8892
2017-04-23T08:33:24.058Z,9876
2017-04-23T08:34:04.533Z,10560
2017-04-23T08:34:45.040Z,11012
2017-04-23T08:35:25.554Z,11360
2017-04-23T08:36:06.081Z,11344
2017-04-23T08:36:46.516Z,10768
2017-04-23T08:37:27.038Z,10008
2017-04-23T08:38:07.521Z,9160
2017-04-23T08:38:48.003Z,8076
2017-04-23T08:39:28.525Z,7000
2017-04-23T08:40:09.016Z,6456
2017-04-23T08:40:49.488Z,6708
2017-04-23T08:41:29.978Z,7432
2017-04-23T08:42:10.510Z,8288
2017-04-23T08:42:50.980Z,9296
2017-04-23T08:43:31.475Z,10056
2017-04-23T08:44:11.958Z,10680
2017-04-23T08:44:52.443Z,10668
2017-04-23T08:45:32.948Z,10464
2017-04-23T08:46:13.412Z,9892
2017-04-23T08:46:53.923Z,9784
2017-04-23T08:47:34.416Z,10256
2017-04-23T08:48:14.906Z,11480
2017-04-23T08:48:55.403Z,13028
2017-04-23T08:49:35.876Z,13856
2017-04-23T08:50:16.357Z,14220
2017-04-23T08:50:56.869Z,13748
2017-04-23T08:51:37.404Z,13372
2017-04-23T08:52:17.915Z,13260
2017-04-23T08:52:58.409Z,13124
2017-04-23T08:53:38.893Z,13064
2017-04-23T08:54:19.409Z,13136
2017-04-23T08:54:59.878Z,13280
2017-04-23T08:55:40.351Z,13220
2017-04-23T08:56:20.821Z,12944
2017-04-23T08:57:01.291Z,12608
2017-04-23T08:57:41.829Z,12384
2017-04-23T08:58:22.329Z,11980
2017-04-23T08:59:02.819Z,11536
2017-04-23T08:59:43.300Z,10980
2017-04-23T09:00:23.802Z,9896
2017-04-23T09:01:04.285Z,8640
2017-04-23T09:01:44.749Z,7748
2017-04-23T09:02:25.341Z,6524
2017-04-23T09:03:05.829Z,5500
2017-04-23T09:03:46.335Z,4844
2017-04-23T09:04:26.816Z,4928
2017-04-23T09:05:07.323Z,5280
2017-04-23T09:05:47.758Z,5200
2017-04-23T09:06:28.277Z,5340
2017-04-23T09:07:08.783Z,5616
2017-04-23T09:07:49.292Z,5948
2017-04-23T09:08:29.753Z,6244
2017-04-23T09:09:10.277Z,6944
2017-04-23T09:09:50.759Z,8512
2017-04-23T09:10:31.221Z,9196
2017-04-23T09:11:11.713Z,9488
2017-04-23T09:11:52.195Z,10352
2017-04-23T09:14:26.822Z,13228
2017-04-23T09:15:07.274Z,13540
2017-04-23T09:15:47.764Z,13472
2017-04-23T09:16:28.268Z,12884
2017-04-23T09:17:08.797Z,11644
2017-04-23T09:19:27.075Z,6440
2017-04-23T09:20:07.545Z,6680
2017-04-23T09:20:48.006Z,6068
2017-04-23T09:21:28.501Z,6256
2017-04-23T09:22:08.983Z,5680
2017-04-23T09:22:49.539Z,5696
2017-04-23T09:23:30.037Z,5648
2017-04-23T09:24:10.537Z,6208
2017-04-23T09:24:50.997Z,6828
2017-04-23T09:25:31.519Z,7720
2017-04-23T09:26:12.033Z,8468
2017-04-23T09:26:52.495Z,9408
2017-04-23T09:27:33.006Z,9388
2017-04-23T09:28:13.511Z,9340
2017-04-23T09:28:54.022Z,10372
2017-04-23T09:29:34.544Z,11904
2017-04-23T09:30:15.028Z,12636
2017-04-23T09:30:55.555Z,15052
2017-04-23T09:31:36.046Z,16612
2017-04-23T09:32:16.706Z,15328
2017-04-23T09:32:57.063Z,13400
2017-04-23T09:33:37.583Z,11584
2017-04-23T09:34:18.046Z,10584
2017-04-23T09:34:58.543Z,8980
2017-04-23T09:35:39.017Z,7612
2017-04-23T09:36:19.529Z,7148
2017-04-23T09:36:59.957Z,7364
2017-04-23T09:37:40.456Z,8192
2017-04-23T09:38:20.943Z,9580
2017-04-23T09:39:01.419Z,11144
2017-04-23T09:39:41.963Z,10416
2017-04-23T09:40:22.470Z,8748
2017-04-23T09:41:02.962Z,9636
2017-04-23T09:41:43.439Z,8632
2017-04-23T09:42:23.946Z,6780
2017-04-23T09:43:04.435Z,6980
2017-04-23T09:43:44.959Z,6348
2017-04-23T09:44:25.427Z,6516
2017-04-23T09:45:05.932Z,7076
2017-04-23T09:45:46.415Z,8796